sensor_id;sensor_type;location;lat;lon;timestamp;temperature;humidity
36186;DHT22;22228;53.222;7.446;2022-12-01T00:00:16;5.50;99.90
36186;DHT22;22228;53.222;7.446;2022-12-01T00:02:38;5.50;99.90
36186;DHT22;22228;53.222;7.446;2022-12-01T00:04:58;5.50;99.90
36186;DHT22;22228;53.222;7.446;2022-12-01T00:07:20;5.50;99.90
36186;DHT22;22228;53.222;7.446;2022-12-01T00:12:58;5.50;99.90
36186;DHT22;22228;53.222;7.446;2022-12-01T00:15:21;5.50;99.90
36186;DHT22;22228;53.222;7.446;2022-12-01T00:17:49;5.50;99.90
36186;DHT22;22228;53.222;7.446;2022-12-01T00:20:10;5.40;99.90
36186;DHT22;22228;53.222;7.446;2022-12-01T00:22:31;5.40;99.90
36186;DHT22;22228;53.222;7.446;2022-12-01T00:24:52;5.40;99.90
36186;DHT22;22228;53.222;7.446;2022-12-01T00:27:13;5.40;99.90
36186;DHT22;22228;53.222;7.446;2022-12-01T00:29:36;5.40;99.90
36186;DHT22;22228;53.222;7.446;2022-12-01T00:32:22;5.40;99.90
36186;DHT22;22228;53.222;7.446;2022-12-01T00:35:14;5.40;99.90
36186;DHT22;22228;53.222;7.446;2022-12-01T00:37:36;5.40;99.90
36186;DHT22;22228;53.222;7.446;2022-12-01T00:40:05;5.40;99.90
36186;DHT22;22228;53.222;7.446;2022-12-01T00:42:34;5.40;99.90
36186;DHT22;22228;53.222;7.446;2022-12-01T00:45:23;5.50;99.90
36186;DHT22;22228;53.222;7.446;2022-12-01T00:47:44;5.50;99.90
36186;DHT22;22228;53.222;7.446;2022-12-01T00:50:06;5.40;99.90
36186;DHT22;22228;53.222;7.446;2022-12-01T00:52:27;5.40;99.90
36186;DHT22;22228;53.222;7.446;2022-12-01T00:54:50;5.50;99.90
36186;DHT22;22228;53.222;7.446;2022-12-01T00:57:13;5.40;99.90
36186;DHT22;22228;53.222;7.446;2022-12-01T00:59:39;5.40;99.90
36186;DHT22;22228;53.222;7.446;2022-12-01T01:02:03;5.30;99.90
36186;DHT22;22228;53.222;7.446;2022-12-01T01:04:25;5.40;99.90
36186;DHT22;22228;53.222;7.446;2022-12-01T01:06:54;5.40;99.90
36186;DHT22;22228;53.222;7.446;2022-12-01T01:09:16;5.40;99.90
36186;DHT22;22228;53.222;7.446;2022-12-01T01:11:39;5.40;99.90
36186;DHT22;22228;53.222;7.446;2022-12-01T01:14:00;5.40;99.90
36186;DHT22;22228;53.222;7.446;2022-12-01T01:16:22;5.40;99.90
36186;DHT22;22228;53.222;7.446;2022-12-01T01:18:53;5.30;99.90
36186;DHT22;22228;53.222;7.446;2022-12-01T01:21:16;5.40;99.90
36186;DHT22;22228;53.222;7.446;2022-12-01T01:23:41;5.40;99.90
36186;DHT22;22228;53.222;7.446;2022-12-01T01:26:29;5.40;99.90
36186;DHT22;22228;53.222;7.446;2022-12-01T01:29:16;5.40;99.90
36186;DHT22;22228;53.222;7.446;2022-12-01T01:31:37;5.40;99.90
36186;DHT22;22228;53.222;7.446;2022-12-01T01:34:06;5.40;99.90
36186;DHT22;22228;53.222;7.446;2022-12-01T01:36:51;5.40;99.90
36186;DHT22;22228;53.222;7.446;2022-12-01T01:39:38;5.40;99.90
36186;DHT22;22228;53.222;7.446;2022-12-01T01:42:00;5.40;99.90
36186;DHT22;22228;53.222;7.446;2022-12-01T01:44:47;5.40;99.90
36186;DHT22;22228;53.222;7.446;2022-12-01T01:47:08;5.30;99.90
36186;DHT22;22228;53.222;7.446;2022-12-01T01:49:31;5.30;99.90
36186;DHT22;22228;53.222;7.446;2022-12-01T01:52:16;5.30;99.90
36186;DHT22;22228;53.222;7.446;2022-12-01T01:54:45;5.30;99.90
36186;DHT22;22228;53.222;7.446;2022-12-01T01:57:08;5.30;99.90
36186;DHT22;22228;53.222;7.446;2022-12-01T01:59:31;5.30;99.90
36186;DHT22;22228;53.222;7.446;2022-12-01T02:02:22;5.30;99.90
36186;DHT22;22228;53.222;7.446;2022-12-01T02:04:49;5.40;99.90
36186;DHT22;22228;53.222;7.446;2022-12-01T02:07:15;5.30;99.90
36186;DHT22;22228;53.222;7.446;2022-12-01T02:09:43;5.30;99.90
36186;DHT22;22228;53.222;7.446;2022-12-01T02:12:35;5.30;99.90
36186;DHT22;22228;53.222;7.446;2022-12-01T02:15:13;5.30;99.90
36186;DHT22;22228;53.222;7.446;2022-12-01T02:17:40;5.30;99.90
36186;DHT22;22228;53.222;7.446;2022-12-01T02:20:44;5.30;99.90
36186;DHT22;22228;53.222;7.446;2022-12-01T02:23:39;5.30;99.90
36186;DHT22;22228;53.222;7.446;2022-12-01T02:26:38;5.30;99.90
36186;DHT22;22228;53.222;7.446;2022-12-01T02:29:32;5.30;99.90
36186;DHT22;22228;53.222;7.446;2022-12-01T02:32:09;5.30;99.90
36186;DHT22;22228;53.222;7.446;2022-12-01T02:34:43;5.30;99.90
36186;DHT22;22228;53.222;7.446;2022-12-01T02:37:07;5.30;99.90
36186;DHT22;22228;53.222;7.446;2022-12-01T02:39:34;5.30;99.90
36186;DHT22;22228;53.222;7.446;2022-12-01T02:42:03;5.20;99.90
36186;DHT22;22228;53.222;7.446;2022-12-01T02:44:31;5.20;99.90
36186;DHT22;22228;53.222;7.446;2022-12-01T02:46:56;5.20;99.90
36186;DHT22;22228;53.222;7.446;2022-12-01T02:49:22;5.20;99.90
36186;DHT22;22228;53.222;7.446;2022-12-01T02:51:45;5.30;99.90
36186;DHT22;22228;53.222;7.446;2022-12-01T02:54:08;5.20;99.90
36186;DHT22;22228;53.222;7.446;2022-12-01T02:56:29;5.20;99.90
36186;DHT22;22228;53.222;7.446;2022-12-01T02:58:50;5.20;99.90
36186;DHT22;22228;53.222;7.446;2022-12-01T03:01:30;5.20;99.90
36186;DHT22;22228;53.222;7.446;2022-12-01T03:03:59;5.20;99.90
36186;DHT22;22228;53.222;7.446;2022-12-01T03:06:39;5.20;99.90
36186;DHT22;22228;53.222;7.446;2022-12-01T03:09:14;5.20;99.90
36186;DHT22;22228;53.222;7.446;2022-12-01T03:12:10;5.20;99.90
36186;DHT22;22228;53.222;7.446;2022-12-01T03:15:07;5.20;99.90
36186;DHT22;22228;53.222;7.446;2022-12-01T03:17:39;5.30;99.90
36186;DHT22;22228;53.222;7.446;2022-12-01T03:20:06;5.20;99.90
36186;DHT22;22228;53.222;7.446;2022-12-01T03:22:36;5.20;99.90
36186;DHT22;22228;53.222;7.446;2022-12-01T03:24:59;5.20;99.90
36186;DHT22;22228;53.222;7.446;2022-12-01T03:27:26;5.20;99.90
36186;DHT22;22228;53.222;7.446;2022-12-01T03:29:50;5.20;99.90
36186;DHT22;22228;53.222;7.446;2022-12-01T03:32:24;5.20;99.90
36186;DHT22;22228;53.222;7.446;2022-12-01T03:35:13;5.20;99.90
36186;DHT22;22228;53.222;7.446;2022-12-01T03:37:46;5.20;99.90
36186;DHT22;22228;53.222;7.446;2022-12-01T03:40:09;5.20;99.90
36186;DHT22;22228;53.222;7.446;2022-12-01T03:42:48;5.20;99.90
36186;DHT22;22228;53.222;7.446;2022-12-01T03:45:15;5.20;99.90
36186;DHT22;22228;53.222;7.446;2022-12-01T03:48:09;5.20;99.90
36186;DHT22;22228;53.222;7.446;2022-12-01T03:50:35;5.20;99.90
36186;DHT22;22228;53.222;7.446;2022-12-01T03:53:05;5.20;99.90
36186;DHT22;22228;53.222;7.446;2022-12-01T03:55:36;5.20;99.90
36186;DHT22;22228;53.222;7.446;2022-12-01T03:58:26;5.20;99.90
36186;DHT22;22228;53.222;7.446;2022-12-01T04:01:14;5.20;99.90
36186;DHT22;22228;53.222;7.446;2022-12-01T04:03:35;5.20;99.90
36186;DHT22;22228;53.222;7.446;2022-12-01T04:06:22;5.30;99.90
36186;DHT22;22228;53.222;7.446;2022-12-01T04:08:44;5.20;99.90
36186;DHT22;22228;53.222;7.446;2022-12-01T04:11:10;5.30;99.90
36186;DHT22;22228;53.222;7.446;2022-12-01T04:14:03;5.20;99.90
36186;DHT22;22228;53.222;7.446;2022-12-01T04:16:30;5.20;99.90
36186;DHT22;22228;53.222;7.446;2022-12-01T04:19:15;5.20;99.90
36186;DHT22;22228;53.222;7.446;2022-12-01T04:21:43;5.20;99.90
36186;DHT22;22228;53.222;7.446;2022-12-01T04:24:32;5.20;99.90
36186;DHT22;22228;53.222;7.446;2022-12-01T04:26:53;5.30;99.90
36186;DHT22;22228;53.222;7.446;2022-12-01T04:29:39;5.20;99.90
36186;DHT22;22228;53.222;7.446;2022-12-01T04:32:01;5.20;99.90
36186;DHT22;22228;53.222;7.446;2022-12-01T04:34:21;5.20;99.90
36186;DHT22;22228;53.222;7.446;2022-12-01T04:36:48;5.20;99.90
36186;DHT22;22228;53.222;7.446;2022-12-01T04:39:14;5.20;99.90
36186;DHT22;22228;53.222;7.446;2022-12-01T04:41:37;5.20;99.90
36186;DHT22;22228;53.222;7.446;2022-12-01T04:44:23;5.20;99.90
36186;DHT22;22228;53.222;7.446;2022-12-01T04:46:44;5.20;99.90
36186;DHT22;22228;53.222;7.446;2022-12-01T04:49:12;5.20;99.90
36186;DHT22;22228;53.222;7.446;2022-12-01T04:51:38;5.20;99.90
36186;DHT22;22228;53.222;7.446;2022-12-01T04:54:01;5.20;99.90
36186;DHT22;22228;53.222;7.446;2022-12-01T04:56:24;5.20;99.90
36186;DHT22;22228;53.222;7.446;2022-12-01T04:58:53;5.20;99.90
36186;DHT22;22228;53.222;7.446;2022-12-01T05:01:20;5.20;99.90
36186;DHT22;22228;53.222;7.446;2022-12-01T05:04:05;5.20;99.90
36186;DHT22;22228;53.222;7.446;2022-12-01T05:06:28;5.20;99.90
36186;DHT22;22228;53.222;7.446;2022-12-01T05:08:49;5.10;99.90
36186;DHT22;22228;53.222;7.446;2022-12-01T05:11:17;5.20;99.90
36186;DHT22;22228;53.222;7.446;2022-12-01T05:13:49;5.20;99.90
36186;DHT22;22228;53.222;7.446;2022-12-01T05:16:12;5.10;99.90
36186;DHT22;22228;53.222;7.446;2022-12-01T05:19:05;5.10;99.90
36186;DHT22;22228;53.222;7.446;2022-12-01T05:21:46;5.10;99.90
36186;DHT22;22228;53.222;7.446;2022-12-01T05:24:18;5.10;99.90
36186;DHT22;22228;53.222;7.446;2022-12-01T05:26:39;5.10;99.90
36186;DHT22;22228;53.222;7.446;2022-12-01T05:29:01;5.10;99.90
36186;DHT22;22228;53.222;7.446;2022-12-01T05:31:24;5.10;99.90
36186;DHT22;22228;53.222;7.446;2022-12-01T05:33:46;5.10;99.90
36186;DHT22;22228;53.222;7.446;2022-12-01T05:36:34;5.10;99.90
36186;DHT22;22228;53.222;7.446;2022-12-01T05:39:01;5.20;99.90
36186;DHT22;22228;53.222;7.446;2022-12-01T05:41:21;5.20;99.90
36186;DHT22;22228;53.222;7.446;2022-12-01T05:43:48;5.30;99.90
36186;DHT22;22228;53.222;7.446;2022-12-01T05:46:11;5.30;99.90
36186;DHT22;22228;53.222;7.446;2022-12-01T05:48:39;5.30;99.90
36186;DHT22;22228;53.222;7.446;2022-12-01T05:51:07;5.30;99.90
36186;DHT22;22228;53.222;7.446;2022-12-01T05:53:35;5.30;99.90
36186;DHT22;22228;53.222;7.446;2022-12-01T05:55:55;5.30;99.90
36186;DHT22;22228;53.222;7.446;2022-12-01T05:58:17;5.20;99.90
36186;DHT22;22228;53.222;7.446;2022-12-01T06:00:41;5.20;99.90
36186;DHT22;22228;53.222;7.446;2022-12-01T06:03:02;5.20;99.90
36186;DHT22;22228;53.222;7.446;2022-12-01T06:05:26;5.20;99.90
36186;DHT22;22228;53.222;7.446;2022-12-01T06:07:49;5.20;99.90
36186;DHT22;22228;53.222;7.446;2022-12-01T06:10:16;5.20;99.90
36186;DHT22;22228;53.222;7.446;2022-12-01T06:12:37;5.30;99.90
36186;DHT22;22228;53.222;7.446;2022-12-01T06:14:58;5.30;99.90
36186;DHT22;22228;53.222;7.446;2022-12-01T06:17:18;5.30;99.90
36186;DHT22;22228;53.222;7.446;2022-12-01T06:19:41;5.30;99.90
36186;DHT22;22228;53.222;7.446;2022-12-01T06:22:04;5.30;99.90
36186;DHT22;22228;53.222;7.446;2022-12-01T06:24:25;5.30;99.90
36186;DHT22;22228;53.222;7.446;2022-12-01T06:26:53;5.30;99.90
36186;DHT22;22228;53.222;7.446;2022-12-01T06:29:18;5.30;99.90
36186;DHT22;22228;53.222;7.446;2022-12-01T06:31:49;5.30;99.90
36186;DHT22;22228;53.222;7.446;2022-12-01T06:34:10;5.30;99.90
36186;DHT22;22228;53.222;7.446;2022-12-01T06:36:36;5.30;99.90
36186;DHT22;22228;53.222;7.446;2022-12-01T06:38:59;5.30;99.90
36186;DHT22;22228;53.222;7.446;2022-12-01T06:41:21;5.30;99.90
36186;DHT22;22228;53.222;7.446;2022-12-01T06:43:41;5.20;99.90
36186;DHT22;22228;53.222;7.446;2022-12-01T06:46:26;5.20;99.90
36186;DHT22;22228;53.222;7.446;2022-12-01T06:48:47;5.20;99.90
36186;DHT22;22228;53.222;7.446;2022-12-01T06:51:14;5.20;99.90
36186;DHT22;22228;53.222;7.446;2022-12-01T06:53:41;5.20;99.90
36186;DHT22;22228;53.222;7.446;2022-12-01T06:56:06;5.20;99.90
36186;DHT22;22228;53.222;7.446;2022-12-01T06:58:27;5.20;99.90
36186;DHT22;22228;53.222;7.446;2022-12-01T07:00:49;5.20;99.90
36186;DHT22;22228;53.222;7.446;2022-12-01T07:03:10;5.20;99.90
36186;DHT22;22228;53.222;7.446;2022-12-01T07:05:37;5.20;99.90
36186;DHT22;22228;53.222;7.446;2022-12-01T07:08:24;5.20;99.90
36186;DHT22;22228;53.222;7.446;2022-12-01T07:10:55;5.20;99.90
36186;DHT22;22228;53.222;7.446;2022-12-01T07:13:24;5.20;99.90
36186;DHT22;22228;53.222;7.446;2022-12-01T07:15:51;5.20;99.90
36186;DHT22;22228;53.222;7.446;2022-12-01T07:18:12;5.20;99.90
36186;DHT22;22228;53.222;7.446;2022-12-01T07:20:58;5.20;99.90
36186;DHT22;22228;53.222;7.446;2022-12-01T07:23:20;5.20;99.90
36186;DHT22;22228;53.222;7.446;2022-12-01T07:25:43;5.20;99.90
36186;DHT22;22228;53.222;7.446;2022-12-01T07:28:10;5.10;99.90
36186;DHT22;22228;53.222;7.446;2022-12-01T07:30:34;5.10;99.90
36186;DHT22;22228;53.222;7.446;2022-12-01T07:32:56;5.20;99.90
36186;DHT22;22228;53.222;7.446;2022-12-01T07:35:41;5.20;99.90
36186;DHT22;22228;53.222;7.446;2022-12-01T07:38:26;5.20;99.90
36186;DHT22;22228;53.222;7.446;2022-12-01T07:40:48;5.10;99.90
36186;DHT22;22228;53.222;7.446;2022-12-01T07:43:40;5.20;99.90
36186;DHT22;22228;53.222;7.446;2022-12-01T07:46:07;5.10;99.90
36186;DHT22;22228;53.222;7.446;2022-12-01T07:48:29;5.20;99.90
36186;DHT22;22228;53.222;7.446;2022-12-01T07:51:14;5.20;99.90
36186;DHT22;22228;53.222;7.446;2022-12-01T07:54:31;5.20;99.90
36186;DHT22;22228;53.222;7.446;2022-12-01T07:56:53;5.30;99.90
36186;DHT22;22228;53.222;7.446;2022-12-01T07:59:14;5.20;99.90
36186;DHT22;22228;53.222;7.446;2022-12-01T08:01:42;5.20;99.90
36186;DHT22;22228;53.222;7.446;2022-12-01T08:04:05;5.20;99.90
36186;DHT22;22228;53.222;7.446;2022-12-01T08:06:33;5.30;99.90
36186;DHT22;22228;53.222;7.446;2022-12-01T08:09:17;5.20;99.90
36186;DHT22;22228;53.222;7.446;2022-12-01T08:12:04;5.20;99.90
36186;DHT22;22228;53.222;7.446;2022-12-01T08:14:31;5.30;99.90
36186;DHT22;22228;53.222;7.446;2022-12-01T08:17:19;5.30;99.90
36186;DHT22;22228;53.222;7.446;2022-12-01T08:19:41;5.30;99.90
36186;DHT22;22228;53.222;7.446;2022-12-01T08:22:26;5.40;99.90
36186;DHT22;22228;53.222;7.446;2022-12-01T08:24:49;5.40;99.90
36186;DHT22;22228;53.222;7.446;2022-12-01T08:27:09;5.40;99.90
36186;DHT22;22228;53.222;7.446;2022-12-01T08:29:30;5.40;99.90
36186;DHT22;22228;53.222;7.446;2022-12-01T08:31:53;5.40;99.90
36186;DHT22;22228;53.222;7.446;2022-12-01T08:34:17;5.50;99.90
36186;DHT22;22228;53.222;7.446;2022-12-01T08:36:38;5.50;99.90
36186;DHT22;22228;53.222;7.446;2022-12-01T08:38:59;5.50;99.90
36186;DHT22;22228;53.222;7.446;2022-12-01T08:41:44;5.50;99.90
36186;DHT22;22228;53.222;7.446;2022-12-01T08:44:08;5.50;99.90
36186;DHT22;22228;53.222;7.446;2022-12-01T08:46:55;5.50;99.90
36186;DHT22;22228;53.222;7.446;2022-12-01T08:49:17;5.50;99.90
36186;DHT22;22228;53.222;7.446;2022-12-01T08:51:40;5.60;99.90
36186;DHT22;22228;53.222;7.446;2022-12-01T08:54:02;5.50;99.90
36186;DHT22;22228;53.222;7.446;2022-12-01T08:56:26;5.50;99.90
36186;DHT22;22228;53.222;7.446;2022-12-01T08:58:47;5.60;99.90
36186;DHT22;22228;53.222;7.446;2022-12-01T09:01:11;5.60;99.90
36186;DHT22;22228;53.222;7.446;2022-12-01T09:03:33;5.50;99.90
36186;DHT22;22228;53.222;7.446;2022-12-01T09:06:03;5.50;99.90
36186;DHT22;22228;53.222;7.446;2022-12-01T09:08:50;5.60;99.90
36186;DHT22;22228;53.222;7.446;2022-12-01T09:11:34;5.60;99.90
36186;DHT22;22228;53.222;7.446;2022-12-01T09:14:28;5.60;99.90
36186;DHT22;22228;53.222;7.446;2022-12-01T09:17:15;5.60;99.90
36186;DHT22;22228;53.222;7.446;2022-12-01T09:20:01;5.60;99.90
36186;DHT22;22228;53.222;7.446;2022-12-01T09:22:24;5.70;99.90
36186;DHT22;22228;53.222;7.446;2022-12-01T09:25:11;5.70;99.90
36186;DHT22;22228;53.222;7.446;2022-12-01T09:27:33;5.80;99.90
36186;DHT22;22228;53.222;7.446;2022-12-01T09:29:54;5.80;99.90
36186;DHT22;22228;53.222;7.446;2022-12-01T09:32:15;5.80;99.90
36186;DHT22;22228;53.222;7.446;2022-12-01T09:34:41;5.80;99.90
36186;DHT22;22228;53.222;7.446;2022-12-01T09:37:02;5.90;99.90
36186;DHT22;22228;53.222;7.446;2022-12-01T09:39:52;5.90;99.90
36186;DHT22;22228;53.222;7.446;2022-12-01T09:42:15;5.90;99.90
36186;DHT22;22228;53.222;7.446;2022-12-01T09:45:03;6.00;99.90
36186;DHT22;22228;53.222;7.446;2022-12-01T09:47:27;6.00;99.90
36186;DHT22;22228;53.222;7.446;2022-12-01T09:49:55;6.00;99.90
36186;DHT22;22228;53.222;7.446;2022-12-01T09:52:18;6.00;99.90
36186;DHT22;22228;53.222;7.446;2022-12-01T09:54:43;6.00;99.90
36186;DHT22;22228;53.222;7.446;2022-12-01T09:57:16;6.10;99.90
36186;DHT22;22228;53.222;7.446;2022-12-01T09:59:39;6.10;99.90
36186;DHT22;22228;53.222;7.446;2022-12-01T10:02:12;6.10;99.90
36186;DHT22;22228;53.222;7.446;2022-12-01T10:05:09;6.10;99.90
36186;DHT22;22228;53.222;7.446;2022-12-01T10:07:34;6.20;99.90
36186;DHT22;22228;53.222;7.446;2022-12-01T10:09:58;6.20;99.90
36186;DHT22;22228;53.222;7.446;2022-12-01T10:12:23;6.20;99.90
36186;DHT22;22228;53.222;7.446;2022-12-01T10:14:55;6.20;99.90
36186;DHT22;22228;53.222;7.446;2022-12-01T10:17:23;6.20;99.90
36186;DHT22;22228;53.222;7.446;2022-12-01T10:19:56;6.20;99.90
36186;DHT22;22228;53.222;7.446;2022-12-01T10:22:48;6.20;99.90
36186;DHT22;22228;53.222;7.446;2022-12-01T10:25:20;6.10;99.90
36186;DHT22;22228;53.222;7.446;2022-12-01T10:27:49;6.10;99.90
36186;DHT22;22228;53.222;7.446;2022-12-01T10:30:22;6.10;99.90
36186;DHT22;22228;53.222;7.446;2022-12-01T10:32:51;6.20;99.90
36186;DHT22;22228;53.222;7.446;2022-12-01T10:35:15;6.20;99.90
36186;DHT22;22228;53.222;7.446;2022-12-01T10:38:01;6.20;99.90
36186;DHT22;22228;53.222;7.446;2022-12-01T10:41:14;6.20;99.90
36186;DHT22;22228;53.222;7.446;2022-12-01T10:43:41;6.20;99.90
36186;DHT22;22228;53.222;7.446;2022-12-01T10:46:11;6.30;99.90
36186;DHT22;22228;53.222;7.446;2022-12-01T10:48:51;6.30;99.90
36186;DHT22;22228;53.222;7.446;2022-12-01T10:51:19;6.20;99.90
36186;DHT22;22228;53.222;7.446;2022-12-01T10:54:12;6.20;99.90
36186;DHT22;22228;53.222;7.446;2022-12-01T10:56:33;6.30;99.90
36186;DHT22;22228;53.222;7.446;2022-12-01T10:59:03;6.30;99.90
36186;DHT22;22228;53.222;7.446;2022-12-01T11:01:26;6.30;99.90
36186;DHT22;22228;53.222;7.446;2022-12-01T11:03:51;6.30;99.90
36186;DHT22;22228;53.222;7.446;2022-12-01T11:06:12;6.20;99.90
36186;DHT22;22228;53.222;7.446;2022-12-01T11:08:38;6.20;99.90
36186;DHT22;22228;53.222;7.446;2022-12-01T11:11:32;6.30;99.90
36186;DHT22;22228;53.222;7.446;2022-12-01T11:13:54;6.40;99.90
36186;DHT22;22228;53.222;7.446;2022-12-01T11:16:43;6.40;99.90
36186;DHT22;22228;53.222;7.446;2022-12-01T11:19:20;6.50;99.90
36186;DHT22;22228;53.222;7.446;2022-12-01T11:21:46;6.50;99.90
36186;DHT22;22228;53.222;7.446;2022-12-01T11:24:40;6.60;99.90
36186;DHT22;22228;53.222;7.446;2022-12-01T11:27:15;6.60;99.90
36186;DHT22;22228;53.222;7.446;2022-12-01T11:30:05;6.60;99.90
36186;DHT22;22228;53.222;7.446;2022-12-01T11:32:39;6.60;99.90
36186;DHT22;22228;53.222;7.446;2022-12-01T11:35:02;6.60;99.90
36186;DHT22;22228;53.222;7.446;2022-12-01T11:37:52;6.60;99.90
36186;DHT22;22228;53.222;7.446;2022-12-01T11:40:19;6.60;99.90
36186;DHT22;22228;53.222;7.446;2022-12-01T11:43:16;6.70;99.90
36186;DHT22;22228;53.222;7.446;2022-12-01T11:45:46;6.70;99.90
36186;DHT22;22228;53.222;7.446;2022-12-01T11:48:23;6.70;99.90
36186;DHT22;22228;53.222;7.446;2022-12-01T11:51:23;6.70;99.90
36186;DHT22;22228;53.222;7.446;2022-12-01T11:53:46;6.70;99.90
36186;DHT22;22228;53.222;7.446;2022-12-01T11:56:16;6.80;99.90
36186;DHT22;22228;53.222;7.446;2022-12-01T11:58:37;6.80;99.90
36186;DHT22;22228;53.222;7.446;2022-12-01T12:01:27;6.80;99.90
36186;DHT22;22228;53.222;7.446;2022-12-01T12:04:07;6.70;99.90
36186;DHT22;22228;53.222;7.446;2022-12-01T12:06:33;6.70;99.90
36186;DHT22;22228;53.222;7.446;2022-12-01T12:09:31;6.70;99.90
36186;DHT22;22228;53.222;7.446;2022-12-01T12:12:06;6.60;99.90
36186;DHT22;22228;53.222;7.446;2022-12-01T12:15:04;6.50;99.90
36186;DHT22;22228;53.222;7.446;2022-12-01T12:17:49;6.50;99.90
36186;DHT22;22228;53.222;7.446;2022-12-01T12:20:27;6.50;99.90
36186;DHT22;22228;53.222;7.446;2022-12-01T12:23:00;6.50;99.90
36186;DHT22;22228;53.222;7.446;2022-12-01T12:25:57;6.50;99.90
36186;DHT22;22228;53.222;7.446;2022-12-01T12:28:40;6.50;99.90
36186;DHT22;22228;53.222;7.446;2022-12-01T12:31:12;6.50;99.90
36186;DHT22;22228;53.222;7.446;2022-12-01T12:36:32;6.60;99.90
36186;DHT22;22228;53.222;7.446;2022-12-01T12:39:05;6.60;99.90
36186;DHT22;22228;53.222;7.446;2022-12-01T12:41:35;6.60;99.90
36186;DHT22;22228;53.222;7.446;2022-12-01T12:44:14;6.60;99.90
36186;DHT22;22228;53.222;7.446;2022-12-01T12:46:45;6.60;99.90
36186;DHT22;22228;53.222;7.446;2022-12-01T12:49:22;6.60;99.90
36186;DHT22;22228;53.222;7.446;2022-12-01T12:51:53;6.60;99.90
36186;DHT22;22228;53.222;7.446;2022-12-01T12:54:42;6.70;99.90
36186;DHT22;22228;53.222;7.446;2022-12-01T12:57:23;6.70;99.90
36186;DHT22;22228;53.222;7.446;2022-12-01T12:59:51;6.60;99.90
36186;DHT22;22228;53.222;7.446;2022-12-01T13:02:16;6.60;99.90
36186;DHT22;22228;53.222;7.446;2022-12-01T13:04:46;6.70;99.90
36186;DHT22;22228;53.222;7.446;2022-12-01T13:07:25;6.70;99.90
36186;DHT22;22228;53.222;7.446;2022-12-01T13:09:53;6.70;99.90
36186;DHT22;22228;53.222;7.446;2022-12-01T13:15:34;6.60;99.90
36186;DHT22;22228;53.222;7.446;2022-12-01T13:18:08;6.60;99.90
36186;DHT22;22228;53.222;7.446;2022-12-01T13:20:32;6.60;99.90
36186;DHT22;22228;53.222;7.446;2022-12-01T13:22:59;6.60;99.90
36186;DHT22;22228;53.222;7.446;2022-12-01T13:25:24;6.60;99.90
36186;DHT22;22228;53.222;7.446;2022-12-01T13:27:56;6.60;99.90
36186;DHT22;22228;53.222;7.446;2022-12-01T13:30:26;6.50;99.90
36186;DHT22;22228;53.222;7.446;2022-12-01T13:32:47;6.50;99.90
36186;DHT22;22228;53.222;7.446;2022-12-01T13:35:24;6.50;99.90
36186;DHT22;22228;53.222;7.446;2022-12-01T13:37:49;6.50;99.90
36186;DHT22;22228;53.222;7.446;2022-12-01T13:40:20;6.50;99.90
36186;DHT22;22228;53.222;7.446;2022-12-01T13:42:56;6.50;99.90
36186;DHT22;22228;53.222;7.446;2022-12-01T13:45:23;6.40;99.90
36186;DHT22;22228;53.222;7.446;2022-12-01T13:47:50;6.40;99.90
36186;DHT22;22228;53.222;7.446;2022-12-01T13:53:24;6.30;99.90
36186;DHT22;22228;53.222;7.446;2022-12-01T13:55:59;6.30;99.90
36186;DHT22;22228;53.222;7.446;2022-12-01T13:58:48;6.20;99.90
36186;DHT22;22228;53.222;7.446;2022-12-01T14:01:42;6.20;99.90
36186;DHT22;22228;53.222;7.446;2022-12-01T14:04:23;6.10;99.90
36186;DHT22;22228;53.222;7.446;2022-12-01T14:06:48;6.20;99.90
36186;DHT22;22228;53.222;7.446;2022-12-01T14:09:40;6.10;99.90
36186;DHT22;22228;53.222;7.446;2022-12-01T14:12:12;6.10;99.90
36186;DHT22;22228;53.222;7.446;2022-12-01T14:15:03;6.10;99.90
36186;DHT22;22228;53.222;7.446;2022-12-01T14:17:33;6.10;99.90
36186;DHT22;22228;53.222;7.446;2022-12-01T14:20:30;6.00;99.90
36186;DHT22;22228;53.222;7.446;2022-12-01T14:23:12;6.00;99.90
36186;DHT22;22228;53.222;7.446;2022-12-01T14:25:40;5.90;99.90
36186;DHT22;22228;53.222;7.446;2022-12-01T14:28:15;5.90;99.90
36186;DHT22;22228;53.222;7.446;2022-12-01T14:31:06;5.90;99.90
36186;DHT22;22228;53.222;7.446;2022-12-01T14:33:49;5.90;99.90
36186;DHT22;22228;53.222;7.446;2022-12-01T14:36:21;5.80;99.90
36186;DHT22;22228;53.222;7.446;2022-12-01T14:42:00;5.70;99.90
36186;DHT22;22228;53.222;7.446;2022-12-01T14:44:28;5.70;99.90
36186;DHT22;22228;53.222;7.446;2022-12-01T14:46:53;5.70;99.90
36186;DHT22;22228;53.222;7.446;2022-12-01T14:49:18;5.70;99.90
36186;DHT22;22228;53.222;7.446;2022-12-01T14:51:44;5.70;99.90
36186;DHT22;22228;53.222;7.446;2022-12-01T14:54:09;5.70;99.90
36186;DHT22;22228;53.222;7.446;2022-12-01T14:56:40;5.60;99.90
36186;DHT22;22228;53.222;7.446;2022-12-01T14:59:14;5.50;99.90
36186;DHT22;22228;53.222;7.446;2022-12-01T15:01:43;5.50;99.90
36186;DHT22;22228;53.222;7.446;2022-12-01T15:04:05;5.50;99.90
36186;DHT22;22228;53.222;7.446;2022-12-01T15:06:27;5.50;99.90
36186;DHT22;22228;53.222;7.446;2022-12-01T15:09:04;5.50;99.90
36186;DHT22;22228;53.222;7.446;2022-12-01T15:11:25;5.50;99.90
36186;DHT22;22228;53.222;7.446;2022-12-01T15:14:28;5.50;99.90
36186;DHT22;22228;53.222;7.446;2022-12-01T15:17:27;5.50;99.90
36186;DHT22;22228;53.222;7.446;2022-12-01T15:19:49;5.40;99.90
36186;DHT22;22228;53.222;7.446;2022-12-01T15:22:12;5.40;99.90
36186;DHT22;22228;53.222;7.446;2022-12-01T15:24:34;5.40;99.90
36186;DHT22;22228;53.222;7.446;2022-12-01T15:26:57;5.40;99.90
36186;DHT22;22228;53.222;7.446;2022-12-01T15:29:44;5.40;99.90
36186;DHT22;22228;53.222;7.446;2022-12-01T15:32:37;5.40;99.90
36186;DHT22;22228;53.222;7.446;2022-12-01T15:35:10;5.40;99.90
36186;DHT22;22228;53.222;7.446;2022-12-01T15:37:41;5.30;99.90
36186;DHT22;22228;53.222;7.446;2022-12-01T15:40:05;5.30;99.90
36186;DHT22;22228;53.222;7.446;2022-12-01T15:42:33;5.40;99.90
36186;DHT22;22228;53.222;7.446;2022-12-01T15:45:21;5.40;99.90
36186;DHT22;22228;53.222;7.446;2022-12-01T15:47:46;5.30;99.90
36186;DHT22;22228;53.222;7.446;2022-12-01T15:50:26;5.30;99.90
36186;DHT22;22228;53.222;7.446;2022-12-01T15:52:50;5.20;99.90
36186;DHT22;22228;53.222;7.446;2022-12-01T15:55:24;5.20;99.90
36186;DHT22;22228;53.222;7.446;2022-12-01T15:57:47;5.20;99.90
36186;DHT22;22228;53.222;7.446;2022-12-01T16:00:17;5.10;99.90
36186;DHT22;22228;53.222;7.446;2022-12-01T16:02:38;5.10;99.90
36186;DHT22;22228;53.222;7.446;2022-12-01T16:05:15;5.10;99.90
36186;DHT22;22228;53.222;7.446;2022-12-01T16:07:38;5.10;99.90
36186;DHT22;22228;53.222;7.446;2022-12-01T16:09:59;5.10;99.90
36186;DHT22;22228;53.222;7.446;2022-12-01T16:12:47;5.10;99.90
36186;DHT22;22228;53.222;7.446;2022-12-01T16:15:41;5.10;99.90
36186;DHT22;22228;53.222;7.446;2022-12-01T16:18:23;5.00;99.90
36186;DHT22;22228;53.222;7.446;2022-12-01T16:21:12;5.00;99.90
36186;DHT22;22228;53.222;7.446;2022-12-01T16:24:02;5.00;99.90
36186;DHT22;22228;53.222;7.446;2022-12-01T16:26:27;5.00;99.90
36186;DHT22;22228;53.222;7.446;2022-12-01T16:28:48;5.00;99.90